sensor_id;sensor_type;location;lat;lon;timestamp;temperature;humidity
53314;DHT22;39202;51.468;7.146;2023-09-18T00:03:51;31.30;44.30
53314;DHT22;39202;51.468;7.146;2023-09-18T00:08:53;31.30;44.20
53314;DHT22;39202;51.468;7.146;2023-09-18T00:13:56;31.30;44.30
53314;DHT22;39202;51.468;7.146;2023-09-18T00:18:58;31.30;44.30
53314;DHT22;39202;51.468;7.146;2023-09-18T00:24:00;31.30;44.40
53314;DHT22;39202;51.468;7.146;2023-09-18T00:29:03;31.30;44.40
53314;DHT22;39202;51.468;7.146;2023-09-18T00:34:04;31.30;44.40
53314;DHT22;39202;51.468;7.146;2023-09-18T00:39:06;31.30;44.40
53314;DHT22;39202;51.468;7.146;2023-09-18T00:44:09;31.30;44.40
53314;DHT22;39202;51.468;7.146;2023-09-18T00:49:11;31.30;45.10
53314;DHT22;39202;51.468;7.146;2023-09-18T00:54:15;31.30;44.40
53314;DHT22;39202;51.468;7.146;2023-09-18T00:59:20;31.30;44.40
53314;DHT22;39202;51.468;7.146;2023-09-18T01:04:22;31.30;44.40
53314;DHT22;39202;51.468;7.146;2023-09-18T01:09:27;31.30;44.40
53314;DHT22;39202;51.468;7.146;2023-09-18T01:14:35;31.30;44.40
53314;DHT22;39202;51.468;7.146;2023-09-18T01:19:39;31.20;44.40
53314;DHT22;39202;51.468;7.146;2023-09-18T01:24:44;31.30;44.50
53314;DHT22;39202;51.468;7.146;2023-09-18T01:29:48;31.20;44.40
53314;DHT22;39202;51.468;7.146;2023-09-18T01:34:52;31.20;44.40
53314;DHT22;39202;51.468;7.146;2023-09-18T01:39:56;31.20;44.40
53314;DHT22;39202;51.468;7.146;2023-09-18T01:44:59;31.20;44.40
53314;DHT22;39202;51.468;7.146;2023-09-18T01:50:03;31.20;44.40
53314;DHT22;39202;51.468;7.146;2023-09-18T01:55:08;31.20;44.40
53314;DHT22;39202;51.468;7.146;2023-09-18T02:00:11;31.20;44.40
53314;DHT22;39202;51.468;7.146;2023-09-18T02:05:14;31.20;44.50
53314;DHT22;39202;51.468;7.146;2023-09-18T02:10:17;31.20;44.40
53314;DHT22;39202;51.468;7.146;2023-09-18T02:15:19;31.20;44.40
53314;DHT22;39202;51.468;7.146;2023-09-18T02:20:21;31.10;44.40
53314;DHT22;39202;51.468;7.146;2023-09-18T02:25:24;31.20;44.50
53314;DHT22;39202;51.468;7.146;2023-09-18T02:30:26;31.10;44.40
53314;DHT22;39202;51.468;7.146;2023-09-18T02:35:29;31.10;44.40
53314;DHT22;39202;51.468;7.146;2023-09-18T02:40:32;31.10;44.40
53314;DHT22;39202;51.468;7.146;2023-09-18T02:45:33;31.10;44.40
53314;DHT22;39202;51.468;7.146;2023-09-18T02:50:35;31.10;44.40
53314;DHT22;39202;51.468;7.146;2023-09-18T02:55:38;31.20;44.50
53314;DHT22;39202;51.468;7.146;2023-09-18T03:00:41;31.10;45.00
53314;DHT22;39202;51.468;7.146;2023-09-18T03:05:44;31.10;44.50
53314;DHT22;39202;51.468;7.146;2023-09-18T03:10:47;31.10;44.40
53314;DHT22;39202;51.468;7.146;2023-09-18T03:15:50;31.10;44.40
53314;DHT22;39202;51.468;7.146;2023-09-18T03:20:51;31.10;44.40
53314;DHT22;39202;51.468;7.146;2023-09-18T03:25:54;31.10;44.50
53314;DHT22;39202;51.468;7.146;2023-09-18T03:30:57;31.10;44.50
53314;DHT22;39202;51.468;7.146;2023-09-18T03:35:59;31.10;44.50
53314;DHT22;39202;51.468;7.146;2023-09-18T03:41:02;31.10;44.50
53314;DHT22;39202;51.468;7.146;2023-09-18T03:46:04;31.10;44.50
53314;DHT22;39202;51.468;7.146;2023-09-18T03:51:06;31.00;44.40
53314;DHT22;39202;51.468;7.146;2023-09-18T03:56:09;31.00;44.40
53314;DHT22;39202;51.468;7.146;2023-09-18T04:01:11;31.00;44.40
53314;DHT22;39202;51.468;7.146;2023-09-18T04:06:13;31.00;44.40
53314;DHT22;39202;51.468;7.146;2023-09-18T04:11:16;31.00;44.40
53314;DHT22;39202;51.468;7.146;2023-09-18T04:16:19;31.00;44.50
53314;DHT22;39202;51.468;7.146;2023-09-18T04:21:20;31.00;44.50
53314;DHT22;39202;51.468;7.146;2023-09-18T04:26:24;31.00;44.50
53314;DHT22;39202;51.468;7.146;2023-09-18T04:31:29;31.00;44.50
53314;DHT22;39202;51.468;7.146;2023-09-18T04:36:31;31.00;44.50
53314;DHT22;39202;51.468;7.146;2023-09-18T04:41:34;31.00;44.50
53314;DHT22;39202;51.468;7.146;2023-09-18T04:46:36;31.00;44.50
53314;DHT22;39202;51.468;7.146;2023-09-18T04:51:38;31.00;44.60
53314;DHT22;39202;51.468;7.146;2023-09-18T04:56:43;31.00;44.60
53314;DHT22;39202;51.468;7.146;2023-09-18T05:01:45;31.00;44.60
53314;DHT22;39202;51.468;7.146;2023-09-18T05:06:47;31.00;44.60
53314;DHT22;39202;51.468;7.146;2023-09-18T05:11:50;31.00;44.60
53314;DHT22;39202;51.468;7.146;2023-09-18T05:16:52;31.00;44.70
53314;DHT22;39202;51.468;7.146;2023-09-18T05:21:54;31.00;44.60
53314;DHT22;39202;51.468;7.146;2023-09-18T05:26:57;31.00;44.60
53314;DHT22;39202;51.468;7.146;2023-09-18T05:31:59;31.00;44.60
53314;DHT22;39202;51.468;7.146;2023-09-18T05:37:00;31.00;44.60
53314;DHT22;39202;51.468;7.146;2023-09-18T05:42:04;31.00;44.70
53314;DHT22;39202;51.468;7.146;2023-09-18T05:47:06;31.00;44.70
53314;DHT22;39202;51.468;7.146;2023-09-18T05:52:09;30.90;44.70
53314;DHT22;39202;51.468;7.146;2023-09-18T05:57:12;31.00;44.70
53314;DHT22;39202;51.468;7.146;2023-09-18T06:02:13;31.00;44.70
53314;DHT22;39202;51.468;7.146;2023-09-18T06:07:17;31.00;44.80
53314;DHT22;39202;51.468;7.146;2023-09-18T06:12:20;31.00;44.80
53314;DHT22;39202;51.468;7.146;2023-09-18T06:17:22;31.00;44.80
53314;DHT22;39202;51.468;7.146;2023-09-18T06:22:25;31.00;44.80
53314;DHT22;39202;51.468;7.146;2023-09-18T06:27:28;31.00;44.80
53314;DHT22;39202;51.468;7.146;2023-09-18T06:32:30;31.00;44.80
53314;DHT22;39202;51.468;7.146;2023-09-18T06:37:32;31.00;44.90
53314;DHT22;39202;51.468;7.146;2023-09-18T06:42:35;30.90;44.90
53314;DHT22;39202;51.468;7.146;2023-09-18T06:47:37;30.90;45.70
53314;DHT22;39202;51.468;7.146;2023-09-18T07:07:50;30.80;44.90
53314;DHT22;39202;51.468;7.146;2023-09-18T07:12:53;30.70;48.10
53314;DHT22;39202;51.468;7.146;2023-09-18T07:17:55;30.60;45.60
53314;DHT22;39202;51.468;7.146;2023-09-18T07:22:57;30.60;45.60
53314;DHT22;39202;51.468;7.146;2023-09-18T07:28:00;30.60;45.70
53314;DHT22;39202;51.468;7.146;2023-09-18T07:33:02;30.60;45.80
53314;DHT22;39202;51.468;7.146;2023-09-18T07:38:04;30.60;45.90
53314;DHT22;39202;51.468;7.146;2023-09-18T07:43:07;30.60;45.90
53314;DHT22;39202;51.468;7.146;2023-09-18T07:48:09;30.60;45.90
53314;DHT22;39202;51.468;7.146;2023-09-18T07:53:11;30.60;45.80
53314;DHT22;39202;51.468;7.146;2023-09-18T07:58:14;30.70;45.90
53314;DHT22;39202;51.468;7.146;2023-09-18T08:03:16;30.70;45.90
53314;DHT22;39202;51.468;7.146;2023-09-18T08:08:19;30.70;46.00
53314;DHT22;39202;51.468;7.146;2023-09-18T08:13:23;30.70;45.90
53314;DHT22;39202;51.468;7.146;2023-09-18T08:18:24;30.70;45.90
53314;DHT22;39202;51.468;7.146;2023-09-18T08:23:27;30.60;45.80
53314;DHT22;39202;51.468;7.146;2023-09-18T08:28:30;30.60;46.10
53314;DHT22;39202;51.468;7.146;2023-09-18T08:33:32;30.60;46.00
53314;DHT22;39202;51.468;7.146;2023-09-18T08:38:35;30.60;45.80
53314;DHT22;39202;51.468;7.146;2023-09-18T08:43:39;30.60;45.80
53314;DHT22;39202;51.468;7.146;2023-09-18T08:48:42;30.60;45.90
53314;DHT22;39202;51.468;7.146;2023-09-18T08:53:46;30.60;45.80
53314;DHT22;39202;51.468;7.146;2023-09-18T08:58:49;30.60;45.80
53314;DHT22;39202;51.468;7.146;2023-09-18T09:03:51;30.60;45.80
53314;DHT22;39202;51.468;7.146;2023-09-18T09:08:53;30.60;45.80
53314;DHT22;39202;51.468;7.146;2023-09-18T09:14:10;30.70;45.80
53314;DHT22;39202;51.468;7.146;2023-09-18T09:19:16;30.70;45.90
53314;DHT22;39202;51.468;7.146;2023-09-18T09:24:36;30.70;45.80
53314;DHT22;39202;51.468;7.146;2023-09-18T09:29:57;30.80;46.40
53314;DHT22;39202;51.468;7.146;2023-09-18T09:34:59;30.80;45.80
53314;DHT22;39202;51.468;7.146;2023-09-18T09:40:04;30.80;45.60
53314;DHT22;39202;51.468;7.146;2023-09-18T09:45:14;30.80;45.70
53314;DHT22;39202;51.468;7.146;2023-09-18T09:50:16;30.70;45.60
53314;DHT22;39202;51.468;7.146;2023-09-18T09:55:20;30.70;45.50
53314;DHT22;39202;51.468;7.146;2023-09-18T10:00:24;30.70;45.40
53314;DHT22;39202;51.468;7.146;2023-09-18T10:05:31;30.70;45.50
53314;DHT22;39202;51.468;7.146;2023-09-18T10:10:37;30.70;45.50
53314;DHT22;39202;51.468;7.146;2023-09-18T10:15:41;30.70;45.40
53314;DHT22;39202;51.468;7.146;2023-09-18T10:20:44;30.80;45.60
53314;DHT22;39202;51.468;7.146;2023-09-18T10:25:48;30.80;45.50
53314;DHT22;39202;51.468;7.146;2023-09-18T10:30:55;30.80;45.50
53314;DHT22;39202;51.468;7.146;2023-09-18T10:35:58;30.80;45.40
53314;DHT22;39202;51.468;7.146;2023-09-18T10:41:01;30.90;45.50
53314;DHT22;39202;51.468;7.146;2023-09-18T10:46:06;31.00;45.50
53314;DHT22;39202;51.468;7.146;2023-09-18T10:51:09;31.00;45.40
53314;DHT22;39202;51.468;7.146;2023-09-18T10:56:14;31.10;45.40
53314;DHT22;39202;51.468;7.146;2023-09-18T11:01:18;31.10;45.20
53314;DHT22;39202;51.468;7.146;2023-09-18T11:06:20;31.20;45.20
53314;DHT22;39202;51.468;7.146;2023-09-18T11:11:27;31.30;45.10
53314;DHT22;39202;51.468;7.146;2023-09-18T11:16:36;31.40;45.00
53314;DHT22;39202;51.468;7.146;2023-09-18T11:21:39;31.40;44.90
53314;DHT22;39202;51.468;7.146;2023-09-18T11:26:42;31.50;44.80
53314;DHT22;39202;51.468;7.146;2023-09-18T11:31:49;31.60;44.70
53314;DHT22;39202;51.468;7.146;2023-09-18T11:36:51;31.60;44.50
53314;DHT22;39202;51.468;7.146;2023-09-18T11:42:07;31.60;44.40
53314;DHT22;39202;51.468;7.146;2023-09-18T11:47:11;31.70;44.30
53314;DHT22;39202;51.468;7.146;2023-09-18T11:52:18;31.70;44.90
53314;DHT22;39202;51.468;7.146;2023-09-18T11:57:20;31.70;44.10
53314;DHT22;39202;51.468;7.146;2023-09-18T12:02:27;31.70;44.00
53314;DHT22;39202;51.468;7.146;2023-09-18T12:07:35;31.70;43.90
53314;DHT22;39202;51.468;7.146;2023-09-18T12:12:37;31.70;43.90
53314;DHT22;39202;51.468;7.146;2023-09-18T12:17:40;31.60;43.90
53314;DHT22;39202;51.468;7.146;2023-09-18T12:22:47;31.60;43.60
53314;DHT22;39202;51.468;7.146;2023-09-18T12:27:51;31.60;43.70
53314;DHT22;39202;51.468;7.146;2023-09-18T12:32:57;31.50;43.90
53314;DHT22;39202;51.468;7.146;2023-09-18T12:38:00;31.50;44.00
53314;DHT22;39202;51.468;7.146;2023-09-18T12:43:05;31.50;44.00
53314;DHT22;39202;51.468;7.146;2023-09-18T12:48:09;31.60;44.00
53314;DHT22;39202;51.468;7.146;2023-09-18T12:53:13;31.50;43.80
53314;DHT22;39202;51.468;7.146;2023-09-18T12:58:19;31.60;43.80
53314;DHT22;39202;51.468;7.146;2023-09-18T13:03:22;31.50;43.50
53314;DHT22;39202;51.468;7.146;2023-09-18T13:08:24;31.50;43.70
53314;DHT22;39202;51.468;7.146;2023-09-18T13:13:26;31.60;43.80
53314;DHT22;39202;51.468;7.146;2023-09-18T13:18:30;31.50;43.70
53314;DHT22;39202;51.468;7.146;2023-09-18T13:23:32;31.60;43.70
53314;DHT22;39202;51.468;7.146;2023-09-18T13:28:35;31.60;43.70
53314;DHT22;39202;51.468;7.146;2023-09-18T13:33:41;31.50;43.70
53314;DHT22;39202;51.468;7.146;2023-09-18T13:38:45;31.50;43.80
53314;DHT22;39202;51.468;7.146;2023-09-18T13:43:46;31.60;44.00
53314;DHT22;39202;51.468;7.146;2023-09-18T13:48:50;31.60;44.10
53314;DHT22;39202;51.468;7.146;2023-09-18T13:53:52;31.60;44.10
53314;DHT22;39202;51.468;7.146;2023-09-18T13:58:56;31.70;44.10
53314;DHT22;39202;51.468;7.146;2023-09-18T14:04:00;31.70;44.10
53314;DHT22;39202;51.468;7.146;2023-09-18T14:09:01;31.80;44.10
53314;DHT22;39202;51.468;7.146;2023-09-18T14:14:06;31.80;44.10
53314;DHT22;39202;51.468;7.146;2023-09-18T14:19:09;31.90;44.10
53314;DHT22;39202;51.468;7.146;2023-09-18T14:24:12;31.90;44.20
53314;DHT22;39202;51.468;7.146;2023-09-18T14:29:14;31.90;44.10
53314;DHT22;39202;51.468;7.146;2023-09-18T14:34:17;31.90;44.10
53314;DHT22;39202;51.468;7.146;2023-09-18T14:39:19;32.00;44.20
53314;DHT22;39202;51.468;7.146;2023-09-18T14:44:20;32.00;44.00
53314;DHT22;39202;51.468;7.146;2023-09-18T14:49:23;32.00;44.00
53314;DHT22;39202;51.468;7.146;2023-09-18T14:54:27;31.80;43.70
53314;DHT22;39202;51.468;7.146;2023-09-18T14:59:29;32.00;43.70
53314;DHT22;39202;51.468;7.146;2023-09-18T15:04:32;32.00;43.70
53314;DHT22;39202;51.468;7.146;2023-09-18T15:09:34;31.90;43.60
53314;DHT22;39202;51.468;7.146;2023-09-18T15:14:36;31.90;43.60
53314;DHT22;39202;51.468;7.146;2023-09-18T15:19:39;31.90;43.60
53314;DHT22;39202;51.468;7.146;2023-09-18T15:24:42;31.90;43.60
53314;DHT22;39202;51.468;7.146;2023-09-18T15:29:44;31.90;43.60
53314;DHT22;39202;51.468;7.146;2023-09-18T15:34:47;31.80;43.60
53314;DHT22;39202;51.468;7.146;2023-09-18T15:39:49;31.80;43.50
53314;DHT22;39202;51.468;7.146;2023-09-18T15:44:51;31.80;43.60
53314;DHT22;39202;51.468;7.146;2023-09-18T15:49:54;31.80;43.60
53314;DHT22;39202;51.468;7.146;2023-09-18T15:54:57;31.70;43.50
53314;DHT22;39202;51.468;7.146;2023-09-18T16:00:00;31.70;43.50
53314;DHT22;39202;51.468;7.146;2023-09-18T16:05:06;31.80;43.60
53314;DHT22;39202;51.468;7.146;2023-09-18T16:10:08;31.70;43.50
53314;DHT22;39202;51.468;7.146;2023-09-18T16:15:10;31.70;43.50
53314;DHT22;39202;51.468;7.146;2023-09-18T16:20:13;31.70;43.50
53314;DHT22;39202;51.468;7.146;2023-09-18T16:25:15;31.70;43.50
53314;DHT22;39202;51.468;7.146;2023-09-18T16:30:17;31.70;43.50
53314;DHT22;39202;51.468;7.146;2023-09-18T16:35:20;31.70;43.50
53314;DHT22;39202;51.468;7.146;2023-09-18T16:40:22;31.70;43.50
53314;DHT22;39202;51.468;7.146;2023-09-18T16:45:23;31.70;43.50
53314;DHT22;39202;51.468;7.146;2023-09-18T16:50:27;31.70;43.50
53314;DHT22;39202;51.468;7.146;2023-09-18T16:55:28;31.70;43.50
53314;DHT22;39202;51.468;7.146;2023-09-18T17:00:30;31.60;43.50
53314;DHT22;39202;51.468;7.146;2023-09-18T17:05:33;31.60;43.60
53314;DHT22;39202;51.468;7.146;2023-09-18T17:10:35;31.60;43.60
53314;DHT22;39202;51.468;7.146;2023-09-18T17:15:37;31.60;43.80
53314;DHT22;39202;51.468;7.146;2023-09-18T17:20:40;31.60;43.60
53314;DHT22;39202;51.468;7.146;2023-09-18T17:25:43;31.60;43.60
53314;DHT22;39202;51.468;7.146;2023-09-18T17:30:44;31.60;43.70
53314;DHT22;39202;51.468;7.146;2023-09-18T17:35:51;31.60;43.70
53314;DHT22;39202;51.468;7.146;2023-09-18T17:40:53;31.60;43.70
53314;DHT22;39202;51.468;7.146;2023-09-18T17:45:55;31.50;43.70
53314;DHT22;39202;51.468;7.146;2023-09-18T17:50:58;31.50;43.70
53314;DHT22;39202;51.468;7.146;2023-09-18T17:56:00;31.50;43.70
53314;DHT22;39202;51.468;7.146;2023-09-18T18:01:01;31.50;43.80
53314;DHT22;39202;51.468;7.146;2023-09-18T18:06:09;31.50;43.70
53314;DHT22;39202;51.468;7.146;2023-09-18T18:11:11;31.50;43.70
53314;DHT22;39202;51.468;7.146;2023-09-18T18:16:13;31.50;43.70
53314;DHT22;39202;51.468;7.146;2023-09-18T18:21:16;31.50;43.70
53314;DHT22;39202;51.468;7.146;2023-09-18T18:26:19;31.50;43.70
53314;DHT22;39202;51.468;7.146;2023-09-18T18:31:27;31.50;43.60
53314;DHT22;39202;51.468;7.146;2023-09-18T18:36:30;31.60;43.70
53314;DHT22;39202;51.468;7.146;2023-09-18T18:41:32;31.50;43.60
53314;DHT22;39202;51.468;7.146;2023-09-18T18:46:34;31.50;43.70
53314;DHT22;39202;51.468;7.146;2023-09-18T18:51:38;31.40;43.60
53314;DHT22;39202;51.468;7.146;2023-09-18T18:56:39;31.40;43.70
53314;DHT22;39202;51.468;7.146;2023-09-18T19:01:44;31.40;43.70
53314;DHT22;39202;51.468;7.146;2023-09-18T19:06:47;31.40;43.70
53314;DHT22;39202;51.468;7.146;2023-09-18T19:11:49;31.40;43.80
53314;DHT22;39202;51.468;7.146;2023-09-18T19:16:51;31.40;43.80
53314;DHT22;39202;51.468;7.146;2023-09-18T19:21:54;31.30;43.70
53314;DHT22;39202;51.468;7.146;2023-09-18T19:26:56;31.40;43.80
53314;DHT22;39202;51.468;7.146;2023-09-18T19:31:58;31.40;43.80
53314;DHT22;39202;51.468;7.146;2023-09-18T19:37:01;31.30;43.80
53314;DHT22;39202;51.468;7.146;2023-09-18T19:42:03;31.30;43.80
53314;DHT22;39202;51.468;7.146;2023-09-18T19:47:07;31.30;43.90
53314;DHT22;39202;51.468;7.146;2023-09-18T19:52:11;31.30;43.90
53314;DHT22;39202;51.468;7.146;2023-09-18T19:57:14;31.30;43.90
53314;DHT22;39202;51.468;7.146;2023-09-18T20:02:16;31.30;43.90
53314;DHT22;39202;51.468;7.146;2023-09-18T20:07:19;31.30;44.00
53314;DHT22;39202;51.468;7.146;2023-09-18T20:12:21;31.20;43.90
53314;DHT22;39202;51.468;7.146;2023-09-18T20:17:23;31.20;44.00
53314;DHT22;39202;51.468;7.146;2023-09-18T20:22:26;31.20;43.90
53314;DHT22;39202;51.468;7.146;2023-09-18T20:27:28;31.20;44.00
53314;DHT22;39202;51.468;7.146;2023-09-18T20:32:30;31.20;44.00
53314;DHT22;39202;51.468;7.146;2023-09-18T20:37:35;31.20;44.00
53314;DHT22;39202;51.468;7.146;2023-09-18T20:42:37;31.10;44.00
53314;DHT22;39202;51.468;7.146;2023-09-18T20:47:39;31.10;44.00
53314;DHT22;39202;51.468;7.146;2023-09-18T20:52:42;31.10;44.00
53314;DHT22;39202;51.468;7.146;2023-09-18T20:57:44;31.10;44.00
53314;DHT22;39202;51.468;7.146;2023-09-18T21:02:45;31.10;44.00
53314;DHT22;39202;51.468;7.146;2023-09-18T21:07:49;31.10;44.00
53314;DHT22;39202;51.468;7.146;2023-09-18T21:12:51;31.10;44.10
53314;DHT22;39202;51.468;7.146;2023-09-18T21:17:53;31.10;44.00
53314;DHT22;39202;51.468;7.146;2023-09-18T21:23:00;31.10;44.00
53314;DHT22;39202;51.468;7.146;2023-09-18T21:28:04;31.10;44.00
53314;DHT22;39202;51.468;7.146;2023-09-18T21:33:05;31.10;44.10
53314;DHT22;39202;51.468;7.146;2023-09-18T21:38:08;31.10;44.10
53314;DHT22;39202;51.468;7.146;2023-09-18T21:43:10;31.10;44.10
53314;DHT22;39202;51.468;7.146;2023-09-18T21:48:12;31.00;44.10
53314;DHT22;39202;51.468;7.146;2023-09-18T21:53:16;31.00;44.10
53314;DHT22;39202;51.468;7.146;2023-09-18T21:58:17;31.00;44.10
53314;DHT22;39202;51.468;7.146;2023-09-18T22:03:19;31.00;44.20
53314;DHT22;39202;51.468;7.146;2023-09-18T22:08:22;31.00;44.10
53314;DHT22;39202;51.468;7.146;2023-09-18T22:13:24;31.00;44.20
53314;DHT22;39202;51.468;7.146;2023-09-18T22:18:29;31.00;44.20
53314;DHT22;39202;51.468;7.146;2023-09-18T22:23:32;31.00;44.20
53314;DHT22;39202;51.468;7.146;2023-09-18T22:28:34;31.00;44.30
53314;DHT22;39202;51.468;7.146;2023-09-18T22:33:37;31.00;44.20
53314;DHT22;39202;51.468;7.146;2023-09-18T22:38:48;31.00;44.30
53314;DHT22;39202;51.468;7.146;2023-09-18T22:55:11;30.90;44.30
53314;DHT22;39202;51.468;7.146;2023-09-18T23:00:14;30.90;44.30
53314;DHT22;39202;51.468;7.146;2023-09-18T23:05:19;30.90;44.30
53314;DHT22;39202;51.468;7.146;2023-09-18T23:10:23;30.90;44.30
53314;DHT22;39202;51.468;7.146;2023-09-18T23:15:24;30.90;44.30
53314;DHT22;39202;51.468;7.146;2023-09-18T23:20:28;30.90;44.30
53314;DHT22;39202;51.468;7.146;2023-09-18T23:25:33;30.90;44.30
53314;DHT22;39202;51.468;7.146;2023-09-18T23:30:37;30.90;44.30
53314;DHT22;39202;51.468;7.146;2023-09-18T23:35:39;30.90;44.30
53314;DHT22;39202;51.468;7.146;2023-09-18T23:40:43;30.80;44.20
53314;DHT22;39202;51.468;7.146;2023-09-18T23:45:45;30.80;44.30
53314;DHT22;39202;51.468;7.146;2023-09-18T23:50:48;30.80;44.30
53314;DHT22;39202;51.468;7.146;2023-09-18T23:55:51;30.80;44.30
